Time;durP1;ratioP1;P1;durP2;ratioP2;P2;SDS_P1;SDS_P2;PMS_P1;PMS_P2;Temp;Humidity;BMP_temperature;BMP_pressure;BME280_temperature;BME280_humidity;BME280_pressure;Samples;Min_cycle;Max_cycle;Signal;HPM_P1;HPM_P2
2022/01/11 00:00:45;;;;;;;243.13;56.40;;;;;;;-1.38;100.00;103089.53;2119990;27;43982;-70
2022/01/11 00:01:47;;;;;;;327.98;64.03;;;;;;;-1.37;99.93;103093.94;2113085;27;45774;-70
2022/01/11 00:02:52;;;;;;;394.10;67.88;;;;;;;-1.38;99.94;103092.16;2113266;27;29118;-70
2022/01/11 00:03:56;;;;;;;365.13;62.90;;;;;;;-1.37;100.00;103097.47;2114357;27;21042;-70
2022/01/11 00:04:58;;;;;;;320.80;60.13;;;;;;;-1.35;100.00;103095.88;2112796;27;46775;-70
2022/01/11 00:06:11;;;;;;;362.63;63.90;;;;;;;-1.36;99.98;103095.78;2112888;27;42465;-70
2022/01/11 00:07:15;;;;;;;404.20;64.78;;;;;;;-1.35;99.88;103092.31;2112895;28;43490;-70
2022/01/11 00:08:18;;;;;;;389.88;65.13;;;;;;;-1.35;100.00;103094.94;2113153;28;45731;-70
2022/01/11 00:09:32;;;;;;;293.88;55.47;;;;;;;-1.35;100.00;103094.94;2113109;27;45483;-70
2022/01/11 00:10:49;;;;;;;323.05;53.72;;;;;;;-1.35;100.00;103095.88;2112569;27;44928;-70
2022/01/11 00:11:55;;;;;;;279.67;52.53;;;;;;;-1.34;100.00;103102.03;2122809;27;20071;-70
2022/01/11 00:13:00;;;;;;;314.27;59.92;;;;;;;-1.33;99.82;103110.81;2118144;27;45131;-69
2022/01/11 00:14:01;;;;;;;346.27;56.28;;;;;;;-1.32;100.00;103110.00;2114364;27;45116;-70
2022/01/11 00:15:04;;;;;;;199.15;44.53;;;;;;;-1.31;100.00;103106.56;2111988;28;42408;-70
2022/01/11 00:16:13;;;;;;;499.90;65.45;;;;;;;-1.34;99.93;103107.28;2105090;28;20952;-69
2022/01/11 00:17:14;;;;;;;365.52;59.70;;;;;;;-1.32;99.95;103112.63;2104589;28;35878;-70
2022/01/11 00:18:16;;;;;;;486.23;68.75;;;;;;;-1.33;100.00;103106.44;2104711;28;44099;-70
2022/01/11 00:19:18;;;;;;;270.58;61.72;;;;;;;-1.32;100.00;103108.28;2104361;28;44906;-69
2022/01/11 00:20:21;;;;;;;446.65;68.10;;;;;;;-1.31;100.00;103111.81;2104199;28;42461;-70
2022/01/11 00:21:22;;;;;;;434.15;62.13;;;;;;;-1.33;100.00;103103.81;2104182;28;43036;-70
2022/01/11 00:22:30;;;;;;;424.08;66.72;;;;;;;-1.32;100.00;103107.38;2104808;28;29082;-70
2022/01/11 00:24:36;;;;;;;502.52;68.20;;;;;;;-1.32;100.00;103107.38;2104172;28;44410;-69
2022/01/11 00:25:41;;;;;;;463.90;65.95;;;;;;;-1.33;100.00;103113.44;2104626;28;42571;-69
2022/01/11 00:26:44;;;;;;;459.52;66.20;;;;;;;-1.33;100.00;103106.44;2104276;28;45585;-70
2022/01/11 00:27:47;;;;;;;425.77;62.53;;;;;;;-1.32;99.97;103110.91;2113186;28;24331;-69
2022/01/11 00:28:49;;;;;;;483.73;64.63;;;;;;;-1.31;100.00;103117.06;2104404;28;20040;-69
2022/01/11 00:30:07;;;;;;;;;;;;;;;-1.32;100.00;103110.91;2097647;28;20041;-70
2022/01/11 00:31:09;;;;;;;328.10;53.63;;;;;;;-1.32;100.00;103120.53;2110612;28;43404;-69
2022/01/11 00:32:15;;;;;;;454.45;60.30;;;;;;;-1.32;100.00;103110.91;2113429;28;33391;-69
2022/01/11 00:33:24;;;;;;;397.90;60.78;;;;;;;-1.32;100.00;103121.41;2097932;28;33196;-69
2022/01/11 00:34:40;;;;;;;425.80;62.63;;;;;;;-1.34;100.00;103115.16;2108534;28;20114;-70
2022/01/11 00:35:57;;;;;;;528.40;67.88;;;;;;;-1.34;100.00;103117.78;2114178;27;21024;-70
2022/01/11 00:36:59;;;;;;;435.98;63.38;;;;;;;-1.32;100.00;103110.00;2113632;28;43824;-69
2022/01/11 00:38:03;;;;;;;383.42;59.70;;;;;;;-1.30;100.00;103118.88;2121778;27;43272;-70
2022/01/11 00:39:05;;;;;;;382.13;63.58;;;;;;;-1.33;100.00;103119.59;2114062;28;21011;-69
2022/01/11 00:40:10;;;;;;;433.20;64.45;;;;;;;-1.35;100.00;103115.97;2105565;28;43047;-70
2022/01/11 00:41:15;;;;;;;394.10;62.78;;;;;;;-1.35;100.00;103110.72;2105264;28;45581;-70
2022/01/11 00:42:22;;;;;;;383.98;63.35;;;;;;;-1.35;100.00;103115.97;2105466;28;43627;-69
2022/01/11 00:43:27;;;;;;;446.08;67.45;;;;;;;-1.37;100.00;103113.25;2106000;28;22183;-69
2022/01/11 00:44:30;;;;;;;355.90;58.13;;;;;;;-1.36;100.00;103115.06;2106250;28;20092;-69
2022/01/11 00:45:33;;;;;;;449.45;64.40;;;;;;;-1.36;100.00;103119.44;2106123;28;20095;-69
2022/01/11 00:46:38;;;;;;;409.42;63.70;;;;;;;-1.36;100.00;103116.81;2088260;28;44405;-69
2022/01/11 00:47:43;;;;;;;337.60;57.35;;;;;;;-1.37;99.88;103114.97;2097397;28;44551;-69
2022/01/11 00:48:45;;;;;;;483.90;65.88;;;;;;;-1.39;100.00;103117.50;2105497;28;44595;-69
2022/01/11 00:49:47;;;;;;;385.88;62.28;;;;;;;-1.41;99.85;103113.88;2106017;28;45096;-69
2022/01/11 00:50:51;;;;;;;439.58;62.65;;;;;;;-1.42;100.00;103113.78;2106047;28;20032;-70
2022/01/11 00:51:52;;;;;;;405.80;62.30;;;;;;;-1.42;100.00;103121.66;2105883;28;45592;-69
2022/01/11 00:52:54;;;;;;;447.50;63.85;;;;;;;-1.44;100.00;103125.91;2113603;28;39883;-69
2022/01/11 00:53:57;;;;;;;417.88;61.75;;;;;;;-1.45;100.00;103125.03;2105518;28;45522;-69
2022/01/11 00:54:59;;;;;;;536.40;66.32;;;;;;;-1.47;100.00;103126.66;2096473;28;46513;-69
2022/01/11 00:56:01;;;;;;;479.20;62.00;;;;;;;-1.45;100.00;103121.50;2097517;28;20091;-69
2022/01/11 00:57:03;;;;;;;378.45;63.10;;;;;;;-1.46;100.00;103124.91;2105544;28;45563;-70
2022/01/11 00:58:06;;;;;;;381.23;56.97;;;;;;;-1.44;100.00;103131.19;2106467;28;20044;-69
2022/01/11 00:59:07;;;;;;;416.70;62.85;;;;;;;-1.50;100.00;103126.44;2105007;28;43736;-70
2022/01/11 01:00:11;;;;;;;264.90;59.30;;;;;;;-1.45;100.00;103126.75;2105286;28;31766;-70
2022/01/11 01:01:14;;;;;;;351.98;58.75;;;;;;;-1.46;100.00;103124.91;2106622;28;20113;-69
2022/01/11 01:02:16;;;;;;;446.35;64.32;;;;;;;-1.48;100.00;103129.19;2105157;28;44436;-69
2022/01/11 01:03:17;;;;;;;332.05;57.08;;;;;;;-1.46;100.00;103127.56;2105125;28;46570;-69
2022/01/11 01:04:19;;;;;;;446.58;62.13;;;;;;;-1.47;100.00;103130.97;2113616;28;34610;-69
2022/01/11 01:05:22;;;;;;;355.65;58.20;;;;;;;-1.46;100.00;103131.06;2113774;28;45608;-69
2022/01/11 01:06:23;;;;;;;284.98;53.90;;;;;;;-1.45;99.89;103121.50;2105444;28;41601;-69
2022/01/11 01:07:25;;;;;;;308.98;57.78;;;;;;;-1.44;100.00;103125.91;2113098;27;39658;-68
2022/01/11 01:08:29;;;;;;;458.52;60.38;;;;;;;-1.46;100.00;103135.44;2105851;28;20036;-69
2022/01/11 01:09:52;;;;;;;297.48;57.30;;;;;;;-1.45;100.00;103134.63;2098141;28;20041;-69
2022/01/11 01:10:56;;;;;;;313.35;56.10;;;;;;;-1.48;100.00;103139.69;2105488;28;32822;-69
2022/01/11 01:12:03;;;;;;;281.65;56.00;;;;;;;-1.48;99.85;103132.72;2105963;28;20191;-69
2022/01/11 01:13:10;;;;;;;336.10;57.08;;;;;;;-1.52;100.00;103132.44;2097942;28;20129;-69
2022/01/11 01:14:13;;;;;;;353.38;56.70;;;;;;;-1.48;100.00;103134.44;2089886;28;20038;-69
2022/01/11 01:15:16;;;;;;;342.50;56.83;;;;;;;-1.48;100.00;103134.44;2097681;28;20045;-69
2022/01/11 01:16:19;;;;;;;250.98;55.88;;;;;;;-1.48;100.00;103140.59;2094638;28;21603;-69
2022/01/11 01:17:44;;;;;;;345.02;57.88;;;;;;;-1.47;100.00;103139.78;2114139;28;20047;-69
2022/01/11 01:18:47;;;;;;;395.17;57.63;;;;;;;-1.48;100.00;103145.84;2105985;28;20184;-69
2022/01/11 01:19:50;;;;;;;314.35;57.80;;;;;;;-1.49;100.00;103143.13;2114166;28;20044;-70
2022/01/11 01:20:54;;;;;;;245.10;49.97;;;;;;;-1.48;99.92;103142.31;2122246;27;40601;-69
2022/01/11 01:21:58;;;;;;;368.90;58.72;;;;;;;-1.51;100.00;103144.75;2113201;27;20086;-69
2022/01/11 01:23:00;;;;;;;315.10;55.60;;;;;;;-1.50;99.94;103143.94;2096416;28;43385;-69
2022/01/11 01:24:08;;;;;;;318.10;53.35;;;;;;;-1.54;100.00;103141.13;2088869;28;40710;-69
2022/01/11 01:25:12;;;;;;;348.88;54.10;;;;;;;-1.54;99.80;103146.38;2106626;28;45756;-70
2022/01/11 01:26:18;;;;;;;320.85;56.25;;;;;;;-1.56;100.00;103144.47;2122145;27;33679;-69
2022/01/11 01:27:19;;;;;;;203.43;50.35;;;;;;;-1.50;100.00;103151.81;2122080;27;20044;-69
2022/01/11 01:28:21;;;;;;;319.55;53.40;;;;;;;-1.50;100.00;103157.97;2122619;27;25225;-69
2022/01/11 01:29:23;;;;;;;386.08;55.05;;;;;;;-1.48;100.00;103155.44;2113869;28;36922;-69
2022/01/11 01:30:26;;;;;;;216.85;49.40;;;;;;;-1.47;99.83;103155.56;2113690;28;20040;-69
2022/01/11 01:31:28;;;;;;;220.77;49.35;;;;;;;-1.46;100.00;103159.06;2105907;28;33624;-69
2022/01/11 01:32:30;;;;;;;250.63;49.70;;;;;;;-1.46;100.00;103164.31;2104621;28;45772;-70
2022/01/11 01:33:33;;;;;;;230.75;49.08;;;;;;;-1.48;100.00;103164.22;2105150;28;46331;-69
2022/01/11 01:34:36;;;;;;;378.77;57.45;;;;;;;-1.49;100.00;103158.88;2113674;28;23663;-70
2022/01/11 01:35:43;;;;;;;230.48;51.25;;;;;;;-1.49;100.00;103164.13;2113147;28;44368;-69
2022/01/11 01:36:45;;;;;;;208.02;46.60;;;;;;;-1.48;100.00;103163.34;2113072;28;45641;-69
2022/01/11 01:37:47;;;;;;;231.45;48.17;;;;;;;-1.49;99.86;103169.38;2122127;27;44960;-69
2022/01/11 01:38:50;;;;;;;273.45;52.00;;;;;;;-1.49;100.00;103169.38;2121321;27;44501;-70
2022/01/11 01:39:52;;;;;;;252.32;53.55;;;;;;;-1.50;100.00;103164.97;2113135;28;44196;-70
2022/01/11 01:41:00;;;;;;;222.88;50.03;;;;;;;-1.49;100.00;103166.75;2112854;28;45097;-70
2022/01/11 01:42:06;;;;;;;270.70;51.67;;;;;;;-1.52;100.00;103171.84;2115197;27;20040;-70
2022/01/11 01:43:11;;;;;;;223.90;49.30;;;;;;;-1.52;100.00;103169.22;2113682;27;45599;-70
2022/01/11 01:44:13;;;;;;;345.42;55.35;;;;;;;-1.52;100.00;103169.22;2113210;28;38841;-70
2022/01/11 01:45:16;;;;;;;335.48;51.92;;;;;;;-1.55;100.00;103165.56;2104735;28;43338;-70
2022/01/11 01:46:18;;;;;;;187.55;47.95;;;;;;;-1.55;99.77;103169.91;2114447;28;20028;-70
2022/01/11 01:47:22;;;;;;;192.40;51.15;;;;;;;-1.54;100.00;103169.13;2112958;28;48856;-70
2022/01/11 01:48:24;;;;;;;288.33;52.90;;;;;;;-1.56;99.78;103168.13;2113819;28;25511;-70
2022/01/11 01:49:29;;;;;;;224.85;49.10;;;;;;;-1.56;99.81;103182.16;2112957;28;45174;-70
2022/01/11 01:50:31;;;;;;;268.83;50.65;;;;;;;-1.59;100.00;103179.31;2106079;28;20037;-69
2022/01/11 01:51:33;;;;;;;237.23;48.42;;;;;;;-1.59;100.00;103174.06;2105771;28;20902;-70
2022/01/11 01:52:36;;;;;;;305.67;49.70;;;;;;;-1.61;100.00;103175.69;2105511;28;23370;-70
2022/01/11 01:53:44;;;;;;;258.77;51.92;;;;;;;-1.62;100.00;103184.38;2105197;28;38619;-69
2022/01/11 01:54:46;;;;;;;197.50;42.17;;;;;;;-1.63;100.00;103187.81;2089567;28;46746;-69
2022/01/11 01:55:48;;;;;;;224.52;47.30;;;;;;;-1.63;100.00;103186.94;2098381;28;20045;-69
2022/01/11 01:56:52;;;;;;;164.40;43.25;;;;;;;-1.64;100.00;103191.25;2105074;28;31639;-69
2022/01/11 01:57:56;;;;;;;181.35;40.53;;;;;;;-1.68;100.00;103191.88;2105433;28;26231;-69
2022/01/11 01:59:00;;;;;;;227.68;44.38;;;;;;;-1.70;100.00;103196.13;2105263;28;43212;-69
2022/01/11 02:00:11;;;;;;;292.33;46.30;;;;;;;-1.72;99.58;103197.75;2105694;28;28453;-69
2022/01/11 02:01:14;;;;;;;199.18;46.33;;;;;;;-1.73;99.48;103195.94;2106690;28;20111;-69
2022/01/11 02:02:16;;;;;;;220.25;45.22;;;;;;;-1.73;100.00;103202.06;2114074;28;20069;-69
2022/01/11 02:03:25;;;;;;;184.98;44.00;;;;;;;-1.75;100.00;103200.16;2113893;28;20045;-69
2022/01/11 02:04:27;;;;;;;242.27;45.45;;;;;;;-1.75;99.40;103198.44;2114443;28;20032;-69
2022/01/11 02:05:29;;;;;;;130.02;41.25;;;;;;;-1.74;100.00;103202.00;2114089;27;44251;-69
2022/01/11 02:06:31;;;;;;;300.85;50.33;;;;;;;-1.77;100.00;103201.78;2121965;27;32867;-69
2022/01/11 02:07:34;;;;;;;198.27;46.38;;;;;;;-1.76;100.00;103204.53;2121596;27;42562;-69
2022/01/11 02:08:37;;;;;;;200.10;44.47;;;;;;;-1.74;100.00;103204.63;2112777;28;36991;-69
2022/01/11 02:09:38;;;;;;;256.00;46.05;;;;;;;-1.76;99.93;103198.34;2104837;28;41815;-69
2022/01/11 02:10:40;;;;;;;181.73;45.38;;;;;;;-1.78;99.62;103199.97;2112338;28;29077;-69
2022/01/11 02:11:43;;;;;;;150.05;45.67;;;;;;;-1.76;99.40;103200.97;2114056;27;42611;-69
2022/01/11 02:12:45;;;;;;;280.25;45.25;;;;;;;-1.79;99.98;103198.16;2113662;27;20149;-69
2022/01/11 02:13:48;;;;;;;212.20;45.28;;;;;;;-1.79;99.65;103198.16;2105222;28;36471;-69
2022/01/11 02:14:51;;;;;;;281.90;46.13;;;;;;;-1.78;99.54;103197.34;2097690;28;20045;-69
2022/01/11 02:15:54;;;;;;;273.60;47.38;;;;;;;-1.82;100.00;103206.75;2099225;28;20037;-68
2022/01/11 02:16:57;;;;;;;220.85;47.08;;;;;;;-1.83;100.00;103209.25;2104367;28;42791;-69
2022/01/11 02:18:14;;;;;;;218.90;41.42;;;;;;;-1.82;99.37;103206.75;2097610;28;20041;-68
2022/01/11 02:19:20;;;;;;;194.32;41.25;;;;;;;-1.81;99.85;103210.25;2099421;28;20045;-69
2022/01/11 02:20:22;;;;;;;226.50;43.55;;;;;;;-1.88;99.41;103211.59;2097566;28;20044;-69
2022/01/11 02:21:24;;;;;;;206.70;42.13;;;;;;;-1.87;100.00;103205.53;2088501;28;20041;-68
2022/01/11 02:22:28;;;;;;;222.85;45.22;;;;;;;-1.83;100.00;103204.00;2089461;28;20050;-68
2022/01/11 02:23:30;;;;;;;160.73;38.90;;;;;;;-1.83;100.00;103204.94;2096737;28;23059;-68
2022/01/11 02:24:33;;;;;;;218.52;43.03;;;;;;;-1.83;99.35;103211.88;2097125;28;20110;-69
2022/01/11 02:25:39;;;;;;;204.63;41.60;;;;;;;-1.84;100.00;103207.47;2105706;28;20958;-68
2022/01/11 02:26:42;;;;;;;156.82;42.28;;;;;;;-1.86;100.00;103207.38;2105359;28;20972;-69
2022/01/11 02:27:44;;;;;;;183.07;43.35;;;;;;;-1.85;100.00;103203.91;2096883;28;20102;-68
2022/01/11 02:28:46;;;;;;;249.02;46.35;;;;;;;-1.86;99.96;103204.75;2105781;28;20899;-68
2022/01/11 02:29:49;;;;;;;206.68;44.95;;;;;;;-1.88;100.00;103205.44;2105317;28;20088;-69
2022/01/11 02:30:53;;;;;;;218.30;43.65;;;;;;;-1.87;99.47;103207.25;2105137;28;23110;-68
2022/01/11 02:31:55;;;;;;;206.32;41.90;;;;;;;-1.87;99.38;103207.25;2105220;28;20033;-68
2022/01/11 02:32:57;;;;;;;225.85;44.33;;;;;;;-1.87;100.00;103209.88;2096983;28;20041;-68
2022/01/11 02:34:01;;;;;;;194.93;37.85;;;;;;;-1.87;99.70;103208.16;2097319;28;20083;-67
2022/01/11 02:35:06;;;;;;;242.40;44.00;;;;;;;-1.88;100.00;103210.69;2096425;28;21975;-67
2022/01/11 02:36:31;;;;;;;180.32;39.53;;;;;;;-1.87;100.00;103212.50;2097622;28;20041;-68
2022/01/11 02:37:50;;;;;;;262.13;43.67;;;;;;;-1.90;100.00;103212.31;2094035;28;20076;-68
2022/01/11 02:38:54;;;;;;;305.75;45.30;;;;;;;-1.89;99.92;103217.66;2100298;28;28426;-68
2022/01/11 02:39:56;;;;;;;214.00;41.90;;;;;;;-1.92;100.00;103209.56;2112651;28;37042;-68
2022/01/11 02:41:05;;;;;;;251.07;45.00;;;;;;;-1.92;100.00;103214.81;2104556;28;20929;-68
2022/01/11 02:42:07;;;;;;;183.35;39.90;;;;;;;-1.92;100.00;103213.13;2097044;28;20170;-69
2022/01/11 02:43:13;;;;;;;301.42;44.78;;;;;;;-1.96;100.00;103213.72;2105897;28;20037;-67
2022/01/11 02:44:16;;;;;;;263.35;42.60;;;;;;;-1.98;100.00;103220.59;2104957;28;20053;-69
2022/01/11 02:45:21;;;;;;;189.05;43.83;;;;;;;-1.94;100.00;103213.81;2104666;28;44564;-68
2022/01/11 02:46:24;;;;;;;259.88;45.42;;;;;;;-1.95;99.81;103209.41;2111597;28;20042;-68
2022/01/11 02:47:27;;;;;;;210.45;46.63;;;;;;;-1.93;99.91;103210.41;2112788;28;20097;-68
2022/01/11 02:48:30;;;;;;;307.65;47.67;;;;;;;-1.93;100.00;103211.28;2096853;28;20041;-68
2022/01/11 02:49:34;;;;;;;263.17;44.80;;;;;;;-1.93;99.52;103213.03;2097146;28;20084;-68
2022/01/11 02:50:46;;;;;;;212.10;40.25;;;;;;;-1.92;100.00;103214.81;2098254;28;20052;-68
2022/01/11 02:51:48;;;;;;;181.95;44.00;;;;;;;-1.93;100.00;103213.03;2097482;28;20135;-68
2022/01/11 02:52:52;;;;;;;231.57;44.22;;;;;;;-1.95;99.63;103212.03;2105661;28;20040;-68
2022/01/11 02:53:55;;;;;;;213.07;42.03;;;;;;;-1.99;99.59;103205.66;2113092;28;35821;-68
2022/01/11 02:54:56;;;;;;;188.23;42.35;;;;;;;-1.98;100.00;103199.59;2104233;28;20110;-68
2022/01/11 02:55:59;;;;;;;196.73;38.97;;;;;;;-1.98;99.76;103207.47;2096593;28;20048;-68
2022/01/11 02:57:01;;;;;;;167.05;39.45;;;;;;;-1.97;99.53;103214.53;2096579;28;20048;-68
2022/01/11 02:58:03;;;;;;;197.82;44.47;;;;;;;-1.99;100.00;103205.66;2105508;28;20047;-68
2022/01/11 02:59:05;;;;;;;222.10;42.47;;;;;;;-2.00;99.95;103201.22;2113330;28;20036;-68
2022/01/11 03:00:12;;;;;;;229.82;42.30;;;;;;;-2.02;100.00;103208.06;2114034;28;20131;-68
2022/01/11 03:01:14;;;;;;;151.57;42.72;;;;;;;-2.01;99.82;103198.47;2104878;28;20051;-68
2022/01/11 03:02:16;;;;;;;210.00;43.15;;;;;;;-2.01;100.00;103204.66;2104597;28;20098;-68
2022/01/11 03:03:22;;;;;;;210.55;40.10;;;;;;;-2.00;99.51;103203.84;2096672;28;20846;-68
2022/01/11 03:04:33;;;;;;;132.35;39.75;;;;;;;-2.01;100.00;103204.66;2097644;28;20048;-68
2022/01/11 03:05:36;;;;;;;130.35;33.15;;;;;;;-2.01;100.00;103203.72;2105293;28;20039;-68
2022/01/11 03:06:37;;;;;;;151.85;44.10;;;;;;;-2.03;100.00;103206.25;2105097;28;20068;-68
2022/01/11 03:07:42;;;;;;;176.68;39.25;;;;;;;-2.02;100.00;103197.59;2104081;28;43735;-66
2022/01/11 03:08:46;;;;;;;157.52;44.00;;;;;;;-2.03;99.60;103202.72;2104690;28;20041;-67
2022/01/11 03:10:02;;;;;;;241.00;45.65;;;;;;;-2.08;99.65;103202.44;2097810;28;20826;-68
2022/01/11 03:11:16;;;;;;;208.02;42.70;;;;;;;-2.05;100.00;103204.34;2107593;28;21091;-67
2022/01/11 03:12:23;;;;;;;211.57;45.90;;;;;;;-2.07;100.00;103201.63;2096472;28;20094;-67
2022/01/11 03:13:26;;;;;;;235.23;46.45;;;;;;;-2.06;99.90;103206.06;2090021;28;21013;-67
2022/01/11 03:14:30;;;;;;;199.65;46.42;;;;;;;-2.05;100.00;103200.00;2097199;28;20072;-67
2022/01/11 03:15:32;;;;;;;287.25;47.45;;;;;;;-2.05;100.00;103202.63;2097064;28;31291;-68
2022/01/11 03:16:37;;;;;;;183.15;45.92;;;;;;;-2.05;100.00;103201.72;2096864;28;20084;-67
2022/01/11 03:17:39;;;;;;;158.32;41.72;;;;;;;-2.03;100.00;103207.97;2105106;28;32869;-67
2022/01/11 03:18:43;;;;;;;217.57;44.10;;;;;;;-2.02;100.00;103208.06;2112840;27;20044;-67
2022/01/11 03:19:46;;;;;;;192.52;48.13;;;;;;;-2.02;100.00;103208.06;2104566;28;28608;-67
2022/01/11 03:20:51;;;;;;;296.58;50.35;;;;;;;-2.01;99.84;103204.66;2104491;28;41423;-67
2022/01/11 03:21:52;;;;;;;232.40;41.25;;;;;;;-2.01;100.00;103204.66;2105082;28;33152;-68
2022/01/11 03:22:54;;;;;;;258.83;49.05;;;;;;;-2.05;99.57;103207.88;2105245;28;20052;-67
2022/01/11 03:23:57;;;;;;;267.73;47.17;;;;;;;-2.05;99.98;103206.97;2112332;27;40725;-67
2022/01/11 03:25:05;;;;;;;168.88;41.42;;;;;;;-2.03;100.00;103205.34;2113411;27;20040;-67
2022/01/11 03:26:07;;;;;;;171.30;46.70;;;;;;;-2.02;100.00;103208.06;2105510;28;20040;-67
2022/01/11 03:27:11;;;;;;;184.95;44.05;;;;;;;-2.04;99.89;103209.69;2105224;28;20045;-67
2022/01/11 03:28:13;;;;;;;186.85;46.72;;;;;;;-2.03;100.00;103216.75;2113374;28;28564;-67
2022/01/11 03:29:15;;;;;;;197.63;41.30;;;;;;;-2.02;99.44;103221.22;2113255;27;21028;-67
2022/01/11 03:30:18;;;;;;;218.95;46.75;;;;;;;-2.03;100.00;103216.75;2104858;28;26933;-67
2022/01/11 03:31:23;;;;;;;258.85;45.53;;;;;;;-2.01;99.63;103220.41;2105531;28;20791;-67
2022/01/11 03:32:25;;;;;;;213.32;45.10;;;;;;;-2.04;99.82;103225.44;2113415;28;20043;-67
2022/01/11 03:33:40;;;;;;;265.75;46.17;;;;;;;-2.05;100.00;103222.72;2113141;27;20163;-67
2022/01/11 03:34:45;;;;;;;171.63;40.17;;;;;;;-2.06;100.00;103215.63;2113519;28;20036;-67
2022/01/11 03:35:49;;;;;;;162.40;39.42;;;;;;;-2.08;99.79;103225.13;2122086;27;20028;-66
2022/01/11 03:36:51;;;;;;;236.43;45.67;;;;;;;-2.12;100.00;103221.41;2112950;28;20162;-67
2022/01/11 03:37:57;;;;;;;309.38;49.75;;;;;;;-2.13;100.00;103217.88;2105340;28;20118;-65
2022/01/11 03:38:59;;;;;;;214.27;47.13;;;;;;;-2.11;99.90;103223.22;2097671;28;20984;-67
2022/01/11 03:40:05;;;;;;;158.57;48.35;;;;;;;-2.12;100.00;103222.34;2105366;28;20044;-66
2022/01/11 03:41:07;;;;;;;273.20;48.85;;;;;;;-2.12;100.00;103221.41;2105401;28;20942;-67
2022/01/11 03:42:11;;;;;;;190.68;43.22;;;;;;;-2.11;99.74;103217.97;2104922;28;20045;-67
2022/01/11 03:43:14;;;;;;;147.52;39.05;;;;;;;-2.10;99.44;103219.78;2113712;28;20039;-66
2022/01/11 03:44:16;;;;;;;292.65;52.03;;;;;;;-2.11;100.00;103218.88;2121510;27;21017;-67
2022/01/11 03:45:22;;;;;;;235.50;48.78;;;;;;;-2.10;100.00;103217.16;2112496;28;45182;-66
2022/01/11 03:46:27;;;;;;;164.23;37.38;;;;;;;-2.10;99.58;103214.53;2113475;27;20044;-66
2022/01/11 03:47:29;;;;;;;140.75;32.28;;;;;;;-2.07;99.55;103219.09;2113407;27;20949;-66
2022/01/11 03:48:30;;;;;;;219.73;45.45;;;;;;;-2.09;100.00;103216.34;2121602;27;20183;-67
2022/01/11 03:49:33;;;;;;;264.40;48.28;;;;;;;-2.10;99.46;103217.16;2113419;28;20095;-66
2022/01/11 03:50:36;;;;;;;328.25;47.78;;;;;;;-2.12;100.00;103221.41;2113232;28;20040;-66
2022/01/11 03:51:39;;;;;;;196.13;40.58;;;;;;;-2.11;100.00;103213.63;2113564;28;20036;-66
2022/01/11 03:52:44;;;;;;;218.85;44.55;;;;;;;-2.12;100.00;103213.53;2113806;27;20036;-66
2022/01/11 03:53:56;;;;;;;215.68;42.72;;;;;;;-2.14;100.00;103213.41;2113510;27;20040;-66
2022/01/11 03:55:10;;;;;;;219.38;42.35;;;;;;;-2.14;99.72;103220.41;2106419;28;20037;-66
2022/01/11 03:56:23;;;;;;;157.07;38.00;;;;;;;-2.17;100.00;103209.69;2098292;28;20037;-66
2022/01/11 03:57:36;;;;;;;257.83;45.92;;;;;;;-2.17;100.00;103217.56;2094517;28;20052;-66
2022/01/11 03:58:38;;;;;;;186.57;44.60;;;;;;;-2.16;99.48;103214.13;2099105;28;20114;-66
2022/01/11 03:59:40;;;;;;;154.77;45.03;;;;;;;-2.16;100.00;103214.13;2104872;28;20143;-66
2022/01/11 04:00:43;;;;;;;228.60;38.90;;;;;;;-2.17;99.64;103220.19;2113332;28;23606;-66
2022/01/11 04:01:46;;;;;;;234.73;47.03;;;;;;;-2.16;100.00;103219.38;2113037;28;20091;-66
2022/01/11 04:02:48;;;;;;;210.73;40.50;;;;;;;-2.18;99.56;103218.38;2105167;28;20834;-66
2022/01/11 04:03:53;;;;;;;168.15;44.67;;;;;;;-2.19;99.51;103227.97;2105366;28;20052;-66
2022/01/11 04:04:55;;;;;;;270.55;42.55;;;;;;;-2.21;99.73;103215.56;2105133;28;20064;-66
2022/01/11 04:05:58;;;;;;;249.32;43.90;;;;;;;-2.24;100.00;103225.84;2105011;27;20908;-66
2022/01/11 04:07:00;;;;;;;226.07;46.85;;;;;;;-2.26;99.76;103225.75;2112209;28;44251;-66
2022/01/11 04:08:06;;;;;;;256.65;47.35;;;;;;;-2.25;100.00;103231.91;2121756;27;20043;-66
2022/01/11 04:09:09;;;;;;;136.50;40.42;;;;;;;-2.27;99.45;103225.66;2112827;28;20139;-66
2022/01/11 04:10:11;;;;;;;241.25;41.95;;;;;;;-2.26;100.00;103227.44;2088989;28;20073;-66
2022/01/11 04:11:14;;;;;;;184.57;42.45;;;;;;;-2.25;99.79;103230.19;2088234;28;20044;-66
2022/01/11 04:12:18;;;;;;;188.95;45.20;;;;;;;-2.27;99.54;103223.94;2096520;28;20060;-66
2022/01/11 04:13:20;;;;;;;184.38;45.53;;;;;;;-2.26;100.00;103222.19;2104986;28;21714;-66
2022/01/11 04:14:25;;;;;;;208.50;44.38;;;;;;;-2.25;99.47;103224.03;2112198;27;45359;-66
2022/01/11 04:15:26;;;;;;;250.98;45.38;;;;;;;-2.27;100.00;103217.78;2112930;28;20814;-66
2022/01/11 04:16:28;;;;;;;244.20;46.00;;;;;;;-2.25;100.00;103224.03;2104654;28;21123;-66
2022/01/11 04:17:34;;;;;;;156.25;42.17;;;;;;;-2.24;99.61;103224.13;2112318;27;20043;-66
2022/01/11 04:18:36;;;;;;;205.27;45.22;;;;;;;-2.21;100.00;103226.03;2112666;28;20075;-66
2022/01/11 04:19:39;;;;;;;246.80;46.13;;;;;;;-2.22;100.00;103229.50;2104900;28;20037;-65
2022/01/11 04:20:40;;;;;;;231.77;44.95;;;;;;;-2.22;100.00;103232.13;2111961;28;46280;-66
2022/01/11 04:21:42;;;;;;;263.33;41.78;;;;;;;-2.21;99.43;103236.53;2121954;27;20206;-66
2022/01/11 04:22:46;;;;;;;226.73;43.03;;;;;;;-2.23;99.67;103231.19;2112931;28;29559;-66
2022/01/11 04:23:47;;;;;;;221.55;42.40;;;;;;;-2.21;100.00;103233.91;2113556;27;20040;-65
2022/01/11 04:24:49;;;;;;;187.43;36.28;;;;;;;-2.21;100.00;103232.19;2113110;28;20057;-66
2022/01/11 04:25:51;;;;;;;223.15;40.03;;;;;;;-2.22;99.42;103235.63;2111954;28;38740;-66
2022/01/11 04:26:53;;;;;;;268.58;47.58;;;;;;;-2.23;99.73;103233.81;2113051;27;20248;-65
2022/01/11 04:27:55;;;;;;;205.23;43.30;;;;;;;-2.21;100.00;103236.53;2098730;28;25215;-66
2022/01/11 04:28:57;;;;;;;197.93;42.05;;;;;;;-2.19;100.00;103242.78;2104719;28;20899;-66
2022/01/11 04:30:01;;;;;;;246.38;48.00;;;;;;;-2.21;99.92;103240.06;2104153;28;28297;-66
2022/01/11 04:31:02;;;;;;;321.90;46.92;;;;;;;-2.23;100.00;103238.16;2113333;28;20227;-66
2022/01/11 04:32:06;;;;;;;317.63;41.83;;;;;;;-2.23;99.88;103246.03;2112760;28;20048;-65
2022/01/11 04:33:08;;;;;;;274.27;40.70;;;;;;;-2.24;99.41;103236.31;2104213;28;20143;-65
2022/01/11 04:34:10;;;;;;;314.00;43.78;;;;;;;-2.26;100.00;103243.19;2112890;28;20071;-66
2022/01/11 04:35:15;;;;;;;180.82;38.45;;;;;;;-2.25;100.00;103245.03;2104661;28;20044;-65
2022/01/11 04:36:18;;;;;;;231.40;42.72;;;;;;;-2.24;100.00;103246.81;2096848;28;20045;-65
2022/01/11 04:37:20;;;;;;;222.75;41.05;;;;;;;-2.25;99.67;103245.94;2095579;28;36954;-65
2022/01/11 04:38:27;;;;;;;161.13;42.60;;;;;;;-2.23;100.00;103240.78;2096137;28;20929;-66
2022/01/11 04:39:29;;;;;;;153.95;40.30;;;;;;;-2.23;99.63;103248.66;2096870;28;21017;-65
2022/01/11 04:40:32;;;;;;;129.43;39.15;;;;;;;-2.23;100.00;103243.41;2088132;28;20871;-65
2022/01/11 04:41:34;;;;;;;200.48;34.28;;;;;;;-2.23;99.73;103239.06;2096653;28;20828;-65
2022/01/11 04:42:35;;;;;;;232.52;42.92;;;;;;;-2.24;99.75;103238.94;2103020;28;45981;-65
2022/01/11 04:43:37;;;;;;;229.82;41.63;;;;;;;-2.25;99.68;103250.28;2104658;28;24321;-65
2022/01/11 04:44:39;;;;;;;220.15;35.83;;;;;;;-2.26;100.00;103245.81;2104317;28;20127;-66
2022/01/11 04:45:41;;;;;;;204.13;38.78;;;;;;;-2.28;99.75;103243.09;2112882;28;31471;-65
2022/01/11 04:46:44;;;;;;;293.95;44.33;;;;;;;-2.28;99.89;103242.19;2103982;28;40997;-65
2022/01/11 04:47:50;;;;;;;262.58;41.53;;;;;;;-2.32;100.00;103244.59;2096069;28;20045;-65